Terminal Aerodrome Forecast
Issued by NWS Sioux Falls, SD

Home | Current Version | Previous Version | Text Only | Print | Product List | Glossary On
Versions: 1 2 3 4 5 6 7 8 9 10 11 12 13 14 15 16 17 18 19 20 21 22 23
258
FTUS43 KFSD 242038 AAD
TAFFSD
TAF AMD
KFSD 242038Z 2421/2518 19014G20KT P6SM SHRA OVC040
     FM250000 18011KT P6SM BKN060
     FM250400 20008KT P6SM SCT080
     FM250800 26006KT P6SM FEW250
     FM251500 28014G22KT P6SM BKN015=

USA.gov is the U.S. government's official web portal to all federal, state and local government web resources and services.